Pagrindinis puslapis
METAR-TAF:

METAR-TAF

Oro uostai :

Augsburgas, Vokietija

platuma: 48-26N, ilguma: 010-56E, Aukštis: 461 m

Dabartinis oras

Ataskaita buvo paskelbta 17 minutes, ne 10:20 UTC
Vėjas 7 kt iš Rytų, svyruoja nuo Šiaurės Rytų ir Pietryčių
Temperatūra 13°C
Drėgmė 51%
Slėgis 1028 hPa
Matomumas 10 km arba daugiau
nėra debesų žemiau 1500 m ir nėra kamuolinių lietaus debesų

METAR: EDMA 201020Z 08007KT 040V130 CAVOK 13/03 Q1028

Laikas: 12:37 (10:37 UTC)

Prognozė

Ataskaita buvo paskelbta 2 valandos ir 37 minutes, ne 08:00 UTC
Prognozė galioja nuo 20 metu 09 UTC su 20 metu 18 UTC
Vėjas 5 kt iš Rytų
Matomumas 10 km arba daugiau
nėra debesų žemiau 1500 m ir nėra kamuolinių lietaus debesų

TAF: EDMA 200800Z 2009/2018 08005KT CAVOK

Orai ataskaitas ir orų prognozės (METAR, TAF).

turimą stotys yra geltonos ir raudonos taškus žemėlapyje.

Perkelti pele per norėdami pamatyti stoties vardą.

Tada spustelėkite, norėdami matyti oro stebėjimo ir prognozės.

Norėdami pakeisti žemėlapį: spustelėkite ant žalios mygtukų su juodo kryžiaus žemyn,; žalią mygtuką su brūkšneliu, jei norite nutolinti; arba žalių rodyklių gretimoms žemėlapius.


METAR-TAF: